Aiken, Texas
Current Conditions -  °F | °C
As of 8:35 PM on Wednesday 17 Dec 2014 (Local Time) from KPVW Reporting Station
Overcast Overcast  
Wind Chill: 37°   Ceiling: 600
Heat Index: 42°   Visibility: 10mi
Dew Point: 38°   Wind: 8mph
Humidity: 86%   Direction: 120°ESE
Pressure: 29.99"   Gusts: NA
Location:  34.14°N, 101.53°W
Report Text: KPVW 180235Z AUTO 12007KT 10SM OVC006 06/04 A2999 RMK AO2 T00570036
Loading
Personal Weather Stations






























Interactive Weather Map New forecast layout! Learn more

10-Day Weather Forecast

Advertisements
Track Severe Weather on mobile